createdAt,value
2019-02-11T00:01:08.799Z,4.90
2019-02-11T00:03:38.045Z,5.00
2019-02-11T00:06:07.294Z,4.90
2019-02-11T00:08:36.519Z,4.90
2019-02-11T00:11:05.846Z,4.90
2019-02-11T00:13:35.087Z,4.90
2019-02-11T00:16:04.385Z,4.90
2019-02-11T00:18:33.619Z,4.90
2019-02-11T00:21:02.864Z,4.90
2019-02-11T00:23:32.011Z,4.90
2019-02-11T00:26:01.330Z,4.90
2019-02-11T00:28:30.483Z,4.90
2019-02-11T00:30:59.663Z,4.90
2019-02-11T00:33:28.959Z,4.90
2019-02-11T00:35:58.134Z,4.90
2019-02-11T00:38:27.273Z,4.90
2019-02-11T00:40:56.522Z,4.90
2019-02-11T00:43:25.742Z,4.80
2019-02-11T00:45:55.115Z,4.80
2019-02-11T00:48:24.334Z,4.80
2019-02-11T00:50:53.580Z,4.70
2019-02-11T00:53:22.726Z,4.70
2019-02-11T00:55:51.896Z,4.70
2019-02-11T00:58:21.050Z,4.70
2019-02-11T01:00:50.345Z,4.70
2019-02-11T01:03:19.542Z,4.70
2019-02-11T01:05:48.687Z,4.70
2019-02-11T01:08:17.983Z,4.70
2019-02-11T01:10:47.136Z,4.60
2019-02-11T01:13:16.418Z,4.60
2019-02-11T01:15:45.639Z,4.60
2019-02-11T01:18:14.814Z,4.60
2019-02-11T01:20:43.954Z,4.60
2019-02-11T01:23:13.207Z,4.60
2019-02-11T01:25:42.434Z,4.60
2019-02-11T01:28:11.696Z,4.60
2019-02-11T01:30:41.095Z,4.60
2019-02-11T01:33:10.305Z,4.50
2019-02-11T01:35:39.601Z,4.50
2019-02-11T01:38:08.849Z,4.40
2019-02-11T01:40:37.989Z,4.40
2019-02-11T01:43:07.274Z,4.50
2019-02-11T01:45:36.428Z,4.40
2019-02-11T01:48:05.666Z,4.40
2019-02-11T01:50:34.901Z,4.40
2019-02-11T01:53:04.069Z,4.40
2019-02-11T01:55:33.215Z,4.30
2019-02-11T01:58:02.381Z,4.30
2019-02-11T02:00:31.707Z,4.30
2019-02-11T02:03:00.894Z,4.40
2019-02-11T02:05:32.265Z,4.40
2019-02-11T02:08:01.451Z,4.40
2019-02-11T02:10:30.741Z,4.40
2019-02-11T02:13:00.027Z,4.40
2019-02-11T02:15:29.246Z,4.40
2019-02-11T02:17:58.395Z,4.40
2019-02-11T02:20:27.565Z,4.40
2019-02-11T02:22:56.714Z,4.40
2019-02-11T02:25:25.991Z,4.40
2019-02-11T02:27:55.206Z,4.40
2019-02-11T02:30:24.446Z,4.40
2019-02-11T02:32:53.582Z,4.40
2019-02-11T02:35:22.774Z,4.40
2019-02-11T02:37:51.913Z,4.40
2019-02-11T02:40:21.156Z,4.40
2019-02-11T02:42:50.371Z,4.40
2019-02-11T02:45:19.694Z,4.40
2019-02-11T02:47:48.990Z,4.40
2019-02-11T02:50:18.336Z,4.50
2019-02-11T02:52:47.568Z,4.50
2019-02-11T02:55:16.799Z,4.50
2019-02-11T02:57:46.026Z,4.60
2019-02-11T03:00:15.269Z,4.60
2019-02-11T03:02:44.552Z,4.60
2019-02-11T03:05:13.804Z,4.60
2019-02-11T03:07:43.022Z,4.60
2019-02-11T03:10:12.389Z,4.70
2019-02-11T03:12:41.684Z,4.60
2019-02-11T03:15:11.005Z,4.70
2019-02-11T03:17:40.246Z,4.70
2019-02-11T03:20:09.603Z,4.70
2019-02-11T03:22:38.819Z,4.70
2019-02-11T03:25:08.419Z,4.70
2019-02-11T03:27:37.634Z,4.60
2019-02-11T03:30:07.281Z,4.60
2019-02-11T03:32:36.542Z,4.60
2019-02-11T03:35:06.126Z,4.60
2019-02-11T03:37:35.359Z,4.60
2019-02-11T03:40:05.446Z,4.50
2019-02-11T03:42:34.585Z,4.60
2019-02-11T03:45:04.201Z,4.60
2019-02-11T03:47:33.451Z,4.60
2019-02-11T03:50:02.881Z,4.60
2019-02-11T03:52:32.053Z,4.60
2019-02-11T03:55:01.268Z,4.60
2019-02-11T03:57:30.538Z,4.60
2019-02-11T03:59:59.781Z,4.70
2019-02-11T04:02:29.058Z,4.70
2019-02-11T04:04:58.281Z,4.60
2019-02-11T04:07:27.479Z,4.60
2019-02-11T04:09:56.618Z,4.60
2019-02-11T04:12:25.880Z,4.60
2019-02-11T04:14:55.093Z,4.60
2019-02-11T04:17:24.302Z,4.60
2019-02-11T04:19:53.591Z,4.60
2019-02-11T04:22:22.759Z,4.60
2019-02-11T04:24:51.988Z,4.50
2019-02-11T04:27:21.167Z,4.50
2019-02-11T04:29:50.466Z,4.50
2019-02-11T04:32:19.781Z,4.50
2019-02-11T04:34:49.008Z,4.50
2019-02-11T04:37:18.211Z,4.50
2019-02-11T04:39:47.513Z,4.50
2019-02-11T04:42:16.762Z,4.50
2019-02-11T04:44:45.904Z,4.50
2019-02-11T04:47:15.254Z,4.50
2019-02-11T04:49:44.403Z,4.60
2019-02-11T04:52:13.655Z,4.60
2019-02-11T04:54:42.805Z,4.60
2019-02-11T04:57:12.059Z,4.60
2019-02-11T04:59:41.247Z,4.70
2019-02-11T05:02:10.523Z,4.70
2019-02-11T05:04:39.742Z,4.60
2019-02-11T05:07:09.203Z,4.60
2019-02-11T05:09:38.440Z,4.60
2019-02-11T05:12:07.700Z,4.60
2019-02-11T05:14:43.473Z,4.60
2019-02-11T05:17:07.897Z,4.50
2019-02-11T05:19:37.057Z,4.50
2019-02-11T05:22:06.388Z,4.50
2019-02-11T05:24:35.602Z,4.50
2019-02-11T05:27:04.817Z,4.40
2019-02-11T05:29:34.039Z,4.40
2019-02-11T05:32:03.294Z,4.50
2019-02-11T05:34:32.527Z,4.50
2019-02-11T05:37:01.845Z,4.50
2019-02-11T05:39:31.083Z,4.60
2019-02-11T05:42:00.223Z,4.50
2019-02-11T05:44:29.483Z,4.50
2019-02-11T05:46:58.731Z,4.50
2019-02-11T05:49:27.977Z,4.50
2019-02-11T05:51:57.227Z,4.50
2019-02-11T05:54:26.426Z,4.60
2019-02-11T05:56:55.572Z,4.50
2019-02-11T05:59:24.819Z,4.50
2019-02-11T06:01:54.069Z,4.50
2019-02-11T06:04:23.367Z,4.50
2019-02-11T06:06:52.578Z,4.50
2019-02-11T06:09:23.215Z,4.40
2019-02-11T06:11:52.659Z,4.40
2019-02-11T06:14:21.907Z,4.40
2019-02-11T06:16:51.057Z,4.40
2019-02-11T06:19:20.305Z,4.40
2019-02-11T06:21:49.557Z,4.40
2019-02-11T06:24:18.882Z,4.50
2019-02-11T06:26:48.112Z,4.50
2019-02-11T06:29:19.002Z,4.50
2019-02-11T06:31:48.417Z,4.50
2019-02-11T06:34:17.586Z,4.40
2019-02-11T06:36:46.899Z,4.40
2019-02-11T06:39:16.155Z,4.50
2019-02-11T06:41:45.371Z,4.50
2019-02-11T06:44:14.631Z,4.50
2019-02-11T06:46:43.806Z,4.40
2019-02-11T06:49:12.972Z,4.40
2019-02-11T06:51:42.195Z,4.30
2019-02-11T06:54:11.366Z,4.20
2019-02-11T06:56:40.564Z,4.10
2019-02-11T06:59:09.763Z,4.10
2019-02-11T07:01:39.013Z,4.10
2019-02-11T07:04:08.260Z,4.10
2019-02-11T07:06:37.473Z,4.10
2019-02-11T07:09:09.098Z,4.20
2019-02-11T07:11:38.411Z,4.20
2019-02-11T07:14:07.590Z,4.20
2019-02-11T07:16:36.858Z,4.20
2019-02-11T07:19:06.105Z,4.20
2019-02-11T07:21:35.290Z,4.20
2019-02-11T07:24:04.540Z,4.20
2019-02-11T07:26:33.699Z,4.20
2019-02-11T07:29:02.959Z,4.20
2019-02-11T07:31:32.194Z,4.20
2019-02-11T07:34:01.402Z,4.20
2019-02-11T07:36:30.622Z,4.30
2019-02-11T07:38:59.871Z,4.30
2019-02-11T07:41:37.530Z,4.40
2019-02-11T07:44:15.795Z,4.50
2019-02-11T07:46:48.948Z,4.60
2019-02-11T07:49:18.235Z,4.60
2019-02-11T07:51:47.373Z,4.60
2019-02-11T07:54:16.547Z,4.70
2019-02-11T07:56:45.866Z,4.70
2019-02-11T07:59:15.132Z,4.70
2019-02-11T08:01:44.383Z,4.80
2019-02-11T08:04:13.639Z,4.90
2019-02-11T08:06:42.886Z,5.00
2019-02-11T08:09:12.750Z,5.00
2019-02-11T08:11:41.987Z,4.90
2019-02-11T08:14:11.134Z,5.00
2019-02-11T08:16:40.315Z,5.00
2019-02-11T08:19:09.544Z,5.10
2019-02-11T08:21:38.850Z,5.10
2019-02-11T08:24:08.157Z,5.20
2019-02-11T08:26:37.410Z,5.20
2019-02-11T08:29:06.649Z,5.10
2019-02-11T08:31:35.965Z,5.10
2019-02-11T08:34:05.131Z,5.00
2019-02-11T08:36:34.385Z,4.90
2019-02-11T08:39:05.450Z,4.80
2019-02-11T08:41:34.724Z,4.80
2019-02-11T08:44:04.278Z,4.80
2019-02-11T08:46:33.497Z,4.90
2019-02-11T08:49:02.650Z,5.00
2019-02-11T08:51:31.910Z,5.00
2019-02-11T08:54:01.067Z,5.00
2019-02-11T08:56:30.471Z,5.00
2019-02-11T08:58:59.727Z,5.30
2019-02-11T09:01:29.116Z,5.40
2019-02-11T09:03:58.290Z,5.30
2019-02-11T09:06:27.589Z,5.40
2019-02-11T09:08:56.819Z,5.40
2019-02-11T09:11:25.999Z,5.40
2019-02-11T09:13:55.219Z,5.50
2019-02-11T09:16:24.478Z,5.50
2019-02-11T09:18:53.658Z,5.60
2019-02-11T09:21:23.010Z,5.70
2019-02-11T09:23:52.198Z,5.80
2019-02-11T09:26:21.369Z,5.90
2019-02-11T09:28:50.615Z,6.10
2019-02-11T09:31:19.867Z,6.20
2019-02-11T09:33:49.159Z,6.10
2019-02-11T09:36:18.414Z,6.00
2019-02-11T09:38:47.644Z,5.90
2019-02-11T09:41:16.896Z,6.00
2019-02-11T09:43:46.139Z,6.00
2019-02-11T09:46:15.391Z,6.20
2019-02-11T09:48:44.694Z,6.30
2019-02-11T09:51:14.047Z,6.30
2019-02-11T09:53:43.191Z,6.40
2019-02-11T09:56:12.477Z,6.50
2019-02-11T09:58:41.716Z,6.50
2019-02-11T10:01:10.943Z,6.40
2019-02-11T10:03:40.233Z,6.30
2019-02-11T10:06:09.536Z,6.20
2019-02-11T10:08:39.068Z,6.20
2019-02-11T10:11:08.295Z,6.20
2019-02-11T10:13:37.590Z,6.20
2019-02-11T10:16:12.256Z,6.20
2019-02-11T10:18:37.787Z,6.10
2019-02-11T10:21:06.923Z,6.10
2019-02-11T10:23:36.174Z,6.20
2019-02-11T10:26:05.412Z,6.20
2019-02-11T10:28:34.654Z,6.20
2019-02-11T10:31:03.889Z,6.20
2019-02-11T10:33:33.071Z,6.10
2019-02-11T10:36:02.303Z,6.10
2019-02-11T10:38:36.486Z,6.20
2019-02-11T10:41:02.509Z,6.20
2019-02-11T10:43:31.762Z,6.30
2019-02-11T10:46:01.195Z,6.40
2019-02-11T10:48:30.470Z,6.40
2019-02-11T10:50:59.768Z,6.40
2019-02-11T10:53:29.015Z,6.40
2019-02-11T10:55:58.261Z,6.50
2019-02-11T10:58:27.615Z,6.50
2019-02-11T11:00:56.815Z,6.60
2019-02-11T11:03:26.026Z,6.80
2019-02-11T11:05:55.267Z,6.80
2019-02-11T11:08:24.510Z,6.90
2019-02-11T11:10:53.754Z,6.90
2019-02-11T11:13:22.994Z,7.10
2019-02-11T11:15:52.220Z,7.20
2019-02-11T11:18:21.394Z,7.20
2019-02-11T11:20:50.657Z,7.20
2019-02-11T11:23:20.033Z,7.10
2019-02-11T11:25:49.267Z,6.90
2019-02-11T11:28:18.554Z,6.70
2019-02-11T11:30:47.810Z,6.70
2019-02-11T11:33:17.146Z,6.60
2019-02-11T11:35:46.307Z,6.50
2019-02-11T11:38:15.490Z,6.50
2019-02-11T11:40:44.646Z,6.60
2019-02-11T11:43:13.906Z,6.50
2019-02-11T11:45:43.505Z,6.50
2019-02-11T11:48:12.757Z,6.60
2019-02-11T11:50:41.994Z,6.60
2019-02-11T11:53:11.174Z,6.60
2019-02-11T11:55:40.346Z,6.60
2019-02-11T11:58:09.616Z,6.60
2019-02-11T12:00:39.107Z,6.60
2019-02-11T12:03:08.542Z,6.70
2019-02-11T12:05:37.801Z,6.70
2019-02-11T12:08:07.103Z,6.70
2019-02-11T12:10:36.508Z,6.60
2019-02-11T12:13:21.589Z,6.60
2019-02-11T12:15:38.825Z,6.60
2019-02-11T12:18:08.156Z,6.50
2019-02-11T12:20:37.417Z,6.40
2019-02-11T12:23:06.650Z,6.40
2019-02-11T12:25:35.922Z,6.30
2019-02-11T12:28:05.316Z,6.30
2019-02-11T12:30:34.679Z,6.30
2019-02-11T12:33:04.054Z,6.20
2019-02-11T12:35:33.440Z,6.20
2019-02-11T12:38:02.760Z,6.20
2019-02-11T12:40:32.017Z,6.30
2019-02-11T12:43:01.343Z,6.30
2019-02-11T12:45:30.574Z,6.30
2019-02-11T12:47:59.809Z,6.30
2019-02-11T12:50:29.151Z,6.30
2019-02-11T12:52:58.379Z,6.30
2019-02-11T12:55:27.882Z,6.40
2019-02-11T12:57:57.179Z,6.30
2019-02-11T13:00:26.500Z,6.30
2019-02-11T13:02:55.848Z,6.30
2019-02-11T13:05:43.282Z,6.30
2019-02-11T13:07:56.171Z,6.30
2019-02-11T13:10:25.424Z,6.30
2019-02-11T13:12:54.756Z,6.30
2019-02-11T13:15:53.940Z,6.30
2019-02-11T13:17:55.004Z,6.30
2019-02-11T13:20:24.337Z,6.40
2019-02-11T13:22:53.627Z,6.50
2019-02-11T13:25:22.900Z,6.50
2019-02-11T13:27:52.193Z,6.40
2019-02-11T13:30:21.762Z,6.30
2019-02-11T13:32:50.984Z,6.30
2019-02-11T13:35:20.315Z,6.20
2019-02-11T13:37:54.295Z,6.20
2019-02-11T13:40:20.763Z,6.20
2019-02-11T13:42:50.396Z,6.10
2019-02-11T13:45:19.851Z,6.20
2019-02-11T13:47:55.362Z,6.10
2019-02-11T13:50:23.017Z,6.10
2019-02-11T13:52:53.414Z,6.10
2019-02-11T13:55:23.328Z,6.10
2019-02-11T13:57:52.865Z,6.10
2019-02-11T14:00:29.665Z,6.00
2019-02-11T14:02:58.909Z,6.00
2019-02-11T14:05:28.882Z,6.00
2019-02-11T14:07:59.750Z,5.90
2019-02-11T14:10:29.384Z,5.60
2019-02-11T14:12:58.808Z,5.50
2019-02-11T14:15:28.032Z,5.40
2019-02-11T14:18:13.099Z,5.30
2019-02-11T14:20:39.905Z,5.30
2019-02-11T14:23:09.395Z,5.30
2019-02-11T14:25:45.038Z,5.20
2019-02-11T14:28:09.616Z,5.10
2019-02-11T14:30:38.927Z,5.00
2019-02-11T14:33:08.348Z,5.00
2019-02-11T14:35:37.513Z,5.00
2019-02-11T14:38:06.846Z,5.00
2019-02-11T14:40:36.131Z,5.10
2019-02-11T14:43:05.457Z,5.00
2019-02-11T14:45:34.765Z,5.00
2019-02-11T14:48:04.038Z,5.10
2019-02-11T14:50:33.331Z,5.20
2019-02-11T14:53:02.581Z,5.30
2019-02-11T14:55:31.803Z,5.30
2019-02-11T14:58:01.063Z,5.30
2019-02-11T15:00:30.311Z,5.30
2019-02-11T15:02:59.579Z,5.40
2019-02-11T15:05:28.822Z,5.50
2019-02-11T15:07:58.336Z,5.50
2019-02-11T15:10:27.562Z,5.40
2019-02-11T15:12:56.746Z,5.40
2019-02-11T15:15:25.970Z,5.40
2019-02-11T15:17:55.150Z,5.40
2019-02-11T15:20:24.432Z,5.30
2019-02-11T15:22:53.690Z,5.30
2019-02-11T15:25:22.844Z,5.30
2019-02-11T15:27:52.124Z,5.30
2019-02-11T15:30:21.282Z,5.20
2019-02-11T15:32:50.522Z,5.20
2019-02-11T15:35:19.876Z,5.10
2019-02-11T15:37:49.200Z,5.10
2019-02-11T15:40:20.487Z,5.00
2019-02-11T15:42:49.664Z,5.00
2019-02-11T15:45:18.900Z,4.90
2019-02-11T15:47:48.145Z,4.90
2019-02-11T15:50:17.892Z,4.90
2019-02-11T15:52:47.262Z,4.80
2019-02-11T15:55:17.599Z,4.80
2019-02-11T15:57:46.948Z,4.80
2019-02-11T16:00:18.029Z,4.70
2019-02-11T16:02:47.410Z,4.70
2019-02-11T16:05:16.986Z,4.60
2019-02-11T16:07:46.444Z,4.60
2019-02-11T16:10:17.594Z,4.60
2019-02-11T16:12:46.811Z,4.50
2019-02-11T16:15:16.036Z,4.50
2019-02-11T16:17:45.292Z,4.40
2019-02-11T16:20:15.077Z,4.40
2019-02-11T16:22:44.399Z,4.40
2019-02-11T16:25:13.810Z,4.30
2019-02-11T16:27:43.036Z,4.30
2019-02-11T16:30:16.244Z,4.20
2019-02-11T16:32:45.486Z,4.20
2019-02-11T16:35:15.435Z,4.10
2019-02-11T16:37:44.587Z,4.10
2019-02-11T16:40:19.492Z,4.00
2019-02-11T16:42:48.715Z,4.00
2019-02-11T16:45:18.025Z,3.90
2019-02-11T16:47:47.323Z,3.90
2019-02-11T16:50:16.583Z,3.90
2019-02-11T16:52:45.758Z,3.80
2019-02-11T16:55:14.930Z,3.80
2019-02-11T16:57:44.314Z,3.80
2019-02-11T17:00:15.571Z,3.70
2019-02-11T17:02:44.756Z,3.70
2019-02-11T17:05:13.483Z,3.60
2019-02-11T17:07:42.634Z,3.60
2019-02-11T17:10:12.462Z,3.50
2019-02-11T17:12:41.614Z,3.50
2019-02-11T17:15:12.998Z,3.40
2019-02-11T17:17:42.245Z,3.40
2019-02-11T17:20:12.018Z,3.40
2019-02-11T17:22:41.341Z,3.30
2019-02-11T17:25:10.823Z,3.30
2019-02-11T17:27:40.058Z,3.30
2019-02-11T17:30:12.100Z,3.30
2019-02-11T17:32:41.257Z,3.30
2019-02-11T17:35:10.600Z,3.30
2019-02-11T17:37:39.773Z,3.30
2019-02-11T17:40:11.744Z,3.20
2019-02-11T17:42:41.231Z,3.20
2019-02-11T17:45:14.021Z,3.20
2019-02-11T17:47:43.454Z,3.20
2019-02-11T17:50:12.985Z,3.10
2019-02-11T17:52:42.239Z,3.10
2019-02-11T17:55:12.361Z,3.10
2019-02-11T17:57:41.615Z,3.10
2019-02-11T18:00:23.986Z,3.00
2019-02-11T18:02:53.273Z,3.00
2019-02-11T18:05:22.493Z,3.00
2019-02-11T18:07:51.752Z,3.00
2019-02-11T18:10:20.909Z,3.00
2019-02-11T18:12:50.242Z,3.00
2019-02-11T18:15:19.407Z,3.00
2019-02-11T18:17:48.656Z,3.00
2019-02-11T18:20:17.806Z,2.90
2019-02-11T18:22:47.177Z,2.90
2019-02-11T18:25:16.460Z,2.80
2019-02-11T18:27:45.715Z,2.80
2019-02-11T18:30:16.510Z,2.80
2019-02-11T18:32:45.953Z,2.80
2019-02-11T18:35:15.262Z,2.80
2019-02-11T18:37:44.446Z,2.80
2019-02-11T18:40:13.870Z,2.80
2019-02-11T18:42:43.314Z,2.80
2019-02-11T18:45:13.466Z,2.80
2019-02-11T18:47:42.854Z,2.80
2019-02-11T18:50:12.975Z,2.70
2019-02-11T18:52:42.165Z,2.60
2019-02-11T18:55:12.110Z,2.60
2019-02-11T18:57:41.614Z,2.60
2019-02-11T19:00:13.244Z,2.60
2019-02-11T19:02:42.883Z,2.60
2019-02-11T19:05:12.140Z,2.60
2019-02-11T19:07:41.293Z,2.60
2019-02-11T19:10:11.598Z,2.60
2019-02-11T19:12:40.898Z,2.70
2019-02-11T19:15:11.416Z,2.80
2019-02-11T19:17:40.674Z,2.80
2019-02-11T19:20:10.970Z,2.90
2019-02-11T19:22:40.123Z,3.00
2019-02-11T19:25:10.044Z,3.00
2019-02-11T19:27:39.191Z,3.00
2019-02-11T19:30:11.910Z,3.00
2019-02-11T19:32:41.171Z,3.10
2019-02-11T19:35:10.490Z,3.20
2019-02-11T19:37:39.717Z,3.30
2019-02-11T19:40:10.450Z,3.30
2019-02-11T19:42:39.683Z,3.30
2019-02-11T19:45:10.487Z,3.30
2019-02-11T19:47:39.761Z,3.30
2019-02-11T19:50:10.419Z,3.30
2019-02-11T19:52:39.645Z,3.20
2019-02-11T19:55:10.846Z,3.20
2019-02-11T19:57:40.344Z,3.20
2019-02-11T20:00:13.031Z,3.10
2019-02-11T20:02:42.288Z,3.10
2019-02-11T20:05:11.657Z,3.00
2019-02-11T20:07:40.806Z,3.00
2019-02-11T20:10:11.283Z,2.90
2019-02-11T20:12:40.439Z,2.90
2019-02-11T20:15:11.934Z,2.90
2019-02-11T20:17:41.082Z,2.80
2019-02-11T20:20:11.961Z,2.80
2019-02-11T20:22:41.192Z,2.70
2019-02-11T20:25:10.650Z,2.70
2019-02-11T20:27:39.888Z,2.60
2019-02-11T20:30:11.621Z,2.60
2019-02-11T20:32:40.863Z,2.60
2019-02-11T20:35:10.038Z,2.60
2019-02-11T20:37:39.274Z,2.50
2019-02-11T20:40:10.735Z,2.50
2019-02-11T20:42:39.963Z,2.50
2019-02-11T20:45:12.505Z,2.40
2019-02-11T20:47:41.791Z,2.40
2019-02-11T20:50:12.126Z,2.50
2019-02-11T20:52:41.536Z,2.50
2019-02-11T20:55:11.882Z,2.50
2019-02-11T20:57:41.128Z,2.60
2019-02-11T21:00:15.235Z,2.60
2019-02-11T21:02:44.510Z,2.60
2019-02-11T21:05:13.935Z,2.60
2019-02-11T21:07:43.246Z,2.60
2019-02-11T21:10:13.450Z,2.60
2019-02-11T21:12:42.691Z,2.70
2019-02-11T21:15:13.155Z,2.70
2019-02-11T21:17:42.588Z,2.70
2019-02-11T21:20:17.596Z,2.70
2019-02-11T21:22:45.853Z,2.70
2019-02-11T21:25:15.347Z,2.70
2019-02-11T21:27:44.531Z,2.70
2019-02-11T21:30:14.313Z,2.70
2019-02-11T21:32:43.589Z,2.80
2019-02-11T21:35:13.538Z,2.90
2019-02-11T21:37:42.985Z,2.90
2019-02-11T21:40:12.293Z,2.80
2019-02-11T21:42:41.542Z,2.80
2019-02-11T21:45:10.825Z,2.80
2019-02-11T21:47:39.979Z,2.90
2019-02-11T21:50:10.831Z,2.90
2019-02-11T21:52:40.110Z,2.90
2019-02-11T21:55:10.899Z,2.90
2019-02-11T21:57:40.046Z,3.00
2019-02-11T22:00:11.950Z,3.00
2019-02-11T22:02:41.122Z,3.00
2019-02-11T22:05:10.309Z,3.00
2019-02-11T22:07:39.541Z,3.10
2019-02-11T22:10:10.728Z,3.10
2019-02-11T22:12:39.950Z,3.10
2019-02-11T22:15:10.043Z,3.10
2019-02-11T22:17:39.262Z,3.10
2019-02-11T22:20:10.784Z,3.10
2019-02-11T22:22:40.022Z,3.10
2019-02-11T22:25:10.266Z,3.20
2019-02-11T22:27:39.537Z,3.20
2019-02-11T22:30:14.325Z,3.20
2019-02-11T22:32:43.470Z,3.20
2019-02-11T22:35:12.734Z,3.20
2019-02-11T22:37:41.966Z,3.20
2019-02-11T22:40:12.330Z,3.20
2019-02-11T22:42:41.635Z,3.30
2019-02-11T22:45:13.402Z,3.30
2019-02-11T22:47:42.553Z,3.30
2019-02-11T22:50:12.451Z,3.30
2019-02-11T22:52:41.639Z,3.30
2019-02-11T22:55:11.386Z,3.40
2019-02-11T22:57:40.613Z,3.40
2019-02-11T23:00:21.333Z,3.40
2019-02-11T23:02:50.546Z,3.40
2019-02-11T23:05:19.867Z,3.40
2019-02-11T23:07:49.099Z,3.40
2019-02-11T23:10:18.364Z,3.50
2019-02-11T23:12:47.587Z,3.50
2019-02-11T23:15:16.756Z,3.50
2019-02-11T23:17:46.010Z,3.50
2019-02-11T23:20:15.315Z,3.50
2019-02-11T23:22:44.559Z,3.50
2019-02-11T23:25:13.773Z,3.50
2019-02-11T23:27:43.062Z,3.50
2019-02-11T23:30:13.773Z,3.50
2019-02-11T23:32:43.323Z,3.60
2019-02-11T23:35:12.551Z,3.60
2019-02-11T23:37:41.799Z,3.60
2019-02-11T23:40:11.206Z,3.60
2019-02-11T23:42:40.390Z,3.50
2019-02-11T23:45:09.894Z,3.50
2019-02-11T23:47:39.110Z,3.50
2019-02-11T23:50:08.413Z,3.50
2019-02-11T23:52:37.638Z,3.60
2019-02-11T23:55:07.062Z,3.50
2019-02-11T23:57:36.382Z,3.50
